createdAt,value
2023-03-21T00:00:26.674Z,94917.00
2023-03-21T00:04:28.450Z,94917.00
2023-03-21T00:08:26.623Z,94913.00
2023-03-21T00:12:26.596Z,94912.00
2023-03-21T00:16:26.584Z,94908.00
2023-03-21T00:20:26.535Z,94904.00
2023-03-21T00:24:26.516Z,94904.00
2023-03-21T00:28:26.788Z,94888.00
2023-03-21T00:32:26.471Z,94884.00
2023-03-21T00:36:26.439Z,94880.00
2023-03-21T00:40:32.940Z,94876.00
2023-03-21T00:44:28.365Z,94872.00
2023-03-21T00:48:26.433Z,94866.00
2023-03-21T00:52:39.833Z,94868.00
2023-03-21T00:56:27.346Z,94868.00
2023-03-21T01:00:26.424Z,94866.00
2023-03-21T01:04:26.352Z,94862.00
2023-03-21T01:08:31.185Z,94859.00
2023-03-21T01:12:27.310Z,94859.00
2023-03-21T01:16:26.452Z,94859.00
2023-03-21T01:20:26.377Z,94853.00
2023-03-21T01:24:26.353Z,94853.00
2023-03-21T01:28:26.302Z,94849.00
2023-03-21T01:32:26.338Z,94847.00
2023-03-21T01:36:26.533Z,94849.00
2023-03-21T01:40:26.184Z,94841.00
2023-03-21T01:44:26.184Z,94837.00
2023-03-21T01:48:26.146Z,94835.00
2023-03-21T01:52:36.546Z,94833.00
2023-03-21T01:56:27.046Z,94829.00
2023-03-21T02:00:26.158Z,94825.00
2023-03-21T02:04:26.258Z,94823.00
2023-03-21T02:08:38.281Z,94819.00
2023-03-21T02:12:27.023Z,94817.00
2023-03-21T02:16:26.155Z,94813.00
2023-03-21T02:20:26.074Z,94812.00
2023-03-21T02:24:26.040Z,94812.00
2023-03-21T02:28:26.029Z,94810.00
2023-03-21T02:32:37.038Z,94808.00
2023-03-21T02:36:26.912Z,94810.00
2023-03-21T02:40:25.939Z,94813.00
2023-03-21T02:44:26.006Z,94812.00
2023-03-21T02:48:33.120Z,94813.00
2023-03-21T02:52:38.101Z,94813.00
2023-03-21T02:56:26.998Z,94812.00
2023-03-21T03:00:26.354Z,94812.00
2023-03-21T03:06:37.827Z,94810.00
2023-03-21T03:10:38.192Z,94808.00
2023-03-21T03:14:49.842Z,94808.00
2023-03-21T03:18:38.718Z,94810.00
2023-03-21T03:22:38.558Z,94812.00
2023-03-21T03:26:38.050Z,94808.00
2023-03-21T03:30:43.400Z,94806.00
2023-03-21T03:34:38.659Z,94804.00
2023-03-21T03:38:37.712Z,94798.00
2023-03-21T03:42:37.626Z,94800.00
2023-03-21T03:46:37.645Z,94800.00
2023-03-21T03:50:37.814Z,94796.00
2023-03-21T03:54:37.540Z,94798.00
2023-03-21T03:58:45.361Z,94800.00
2023-03-21T04:02:38.506Z,94798.00
2023-03-21T04:06:37.512Z,94800.00
2023-03-21T04:10:37.721Z,94802.00
2023-03-21T04:14:44.392Z,94798.00
2023-03-21T04:18:38.476Z,94796.00
2023-03-21T04:22:37.564Z,94796.00
2023-03-21T04:26:37.503Z,94798.00
2023-03-21T04:30:38.500Z,94800.00
2023-03-21T04:34:37.426Z,94798.00
2023-03-21T04:38:37.629Z,94800.00
2023-03-21T04:42:37.426Z,94804.00
2023-03-21T04:46:37.290Z,94802.00
2023-03-21T04:50:37.638Z,94798.00
2023-03-21T04:54:37.254Z,94796.00
2023-03-21T04:58:37.223Z,94796.00
2023-03-21T05:02:37.194Z,94800.00
2023-03-21T05:06:37.164Z,94802.00
2023-03-21T05:10:37.175Z,94806.00
2023-03-21T05:14:37.055Z,94810.00
2023-03-21T05:18:37.233Z,94812.00
2023-03-21T05:22:37.193Z,94808.00
2023-03-21T05:26:38.190Z,94812.00
2023-03-21T05:30:37.209Z,94813.00
2023-03-21T05:34:38.088Z,94812.00
2023-03-21T05:38:37.085Z,94812.00
2023-03-21T05:42:37.149Z,94813.00
2023-03-21T05:46:37.109Z,94812.00
2023-03-21T05:50:37.102Z,94819.00
2023-03-21T05:54:37.070Z,94819.00
2023-03-21T05:58:37.086Z,94821.00
2023-03-21T06:02:37.600Z,94817.00
2023-03-21T06:06:36.989Z,94815.00
2023-03-21T06:10:36.899Z,94815.00
2023-03-21T06:14:37.180Z,94817.00
2023-03-21T06:18:36.799Z,94817.00
2023-03-21T06:22:36.841Z,94819.00
2023-03-21T06:26:36.958Z,94819.00
2023-03-21T06:30:36.820Z,94817.00
2023-03-21T06:34:39.307Z,94819.00
2023-03-21T06:38:36.788Z,94819.00
2023-03-21T06:42:37.149Z,94815.00
2023-03-21T06:46:36.794Z,94819.00
2023-03-21T06:50:36.689Z,94813.00
2023-03-21T06:54:36.676Z,94810.00
2023-03-21T06:58:36.728Z,94812.00
2023-03-21T07:02:36.644Z,94812.00
2023-03-21T07:06:36.616Z,94821.00
2023-03-21T07:10:36.466Z,94821.00
2023-03-21T07:14:36.456Z,94821.00
2023-03-21T07:18:37.064Z,94823.00
2023-03-21T07:22:36.688Z,94823.00
2023-03-21T07:26:36.331Z,94827.00
2023-03-21T07:30:36.456Z,94823.00
2023-03-21T07:34:36.650Z,94821.00
2023-03-21T07:38:36.846Z,94819.00
2023-03-21T07:42:37.098Z,94819.00
2023-03-21T07:46:36.922Z,94819.00
2023-03-21T07:50:36.985Z,94819.00
2023-03-21T07:54:37.004Z,94817.00
2023-03-21T07:58:37.030Z,94819.00
2023-03-21T08:02:37.169Z,94823.00
2023-03-21T08:06:37.039Z,94819.00
2023-03-21T08:10:38.405Z,94821.00
2023-03-21T08:14:37.124Z,94827.00
2023-03-21T08:18:37.196Z,94817.00
2023-03-21T08:22:37.371Z,94812.00
2023-03-21T08:26:37.438Z,94815.00
2023-03-21T08:30:37.657Z,94813.00
2023-03-21T08:34:39.814Z,94810.00
2023-03-21T08:38:38.016Z,94810.00
2023-03-21T08:42:37.925Z,94810.00
2023-03-21T08:46:38.034Z,94804.00
2023-03-21T08:50:38.003Z,94802.00
2023-03-21T08:54:38.306Z,94794.00
2023-03-21T08:58:38.214Z,94790.00
2023-03-21T09:02:38.165Z,94790.00
2023-03-21T09:06:38.096Z,94786.00
2023-03-21T09:10:38.076Z,94788.00
2023-03-21T09:14:39.169Z,94780.00
2023-03-21T09:18:38.219Z,94780.00
2023-03-21T09:22:38.824Z,94778.00
2023-03-21T09:26:38.279Z,94774.00
2023-03-21T09:30:38.244Z,94770.00
2023-03-21T09:34:38.168Z,94766.00
2023-03-21T09:38:40.188Z,94763.00
2023-03-21T09:42:39.808Z,94759.00
2023-03-21T09:46:39.046Z,94761.00
2023-03-21T09:50:38.691Z,94753.00
2023-03-21T09:54:38.432Z,94749.00
2023-03-21T09:58:38.563Z,94743.00
2023-03-21T10:02:38.785Z,94741.00
2023-03-21T10:06:38.829Z,94739.00
2023-03-21T10:10:39.151Z,94735.00
2023-03-21T10:14:39.116Z,94733.00
2023-03-21T10:18:39.306Z,94727.00
2023-03-21T10:22:39.368Z,94727.00
2023-03-21T10:26:39.457Z,94721.00
2023-03-21T10:30:39.475Z,94716.00
2023-03-21T10:34:39.503Z,94712.00
2023-03-21T10:38:40.165Z,94706.00
2023-03-21T10:42:39.798Z,94704.00
2023-03-21T10:46:40.172Z,94698.00
2023-03-21T10:50:41.304Z,94694.00
2023-03-21T10:54:39.814Z,94688.00
2023-03-21T10:58:39.812Z,94686.00
2023-03-21T11:02:39.737Z,94682.00
2023-03-21T11:06:39.781Z,94678.00
2023-03-21T11:10:39.761Z,94678.00
2023-03-21T11:14:39.912Z,94672.00
2023-03-21T11:18:40.144Z,94668.00
2023-03-21T11:22:40.365Z,94664.00
2023-03-21T11:26:40.445Z,94663.00
2023-03-21T11:30:40.887Z,94659.00
2023-03-21T11:34:40.523Z,94649.00
2023-03-21T11:38:40.599Z,94641.00
2023-03-21T11:42:41.879Z,94631.00
2023-03-21T11:46:40.792Z,94627.00
2023-03-21T11:50:40.532Z,94619.00
2023-03-21T11:54:40.429Z,94616.00
2023-03-21T11:58:40.449Z,94610.00
2023-03-21T12:02:40.656Z,94600.00
2023-03-21T12:06:40.805Z,94594.00
2023-03-21T12:10:41.063Z,94586.00
2023-03-21T12:14:41.244Z,94586.00
2023-03-21T12:18:42.535Z,94578.00
2023-03-21T12:22:41.775Z,94572.00
2023-03-21T12:26:41.978Z,94565.00
2023-03-21T12:30:43.906Z,94561.00
2023-03-21T12:34:42.297Z,94555.00
2023-03-21T12:38:42.065Z,94549.00
2023-03-21T12:42:42.103Z,94545.00
2023-03-21T12:46:42.417Z,94541.00
2023-03-21T12:50:41.999Z,94541.00
2023-03-21T12:54:41.890Z,94541.00
2023-03-21T12:58:43.046Z,94539.00
2023-03-21T13:02:41.881Z,94531.00
2023-03-21T13:06:41.798Z,94527.00
2023-03-21T13:10:43.202Z,94529.00
2023-03-21T13:14:41.945Z,94527.00
2023-03-21T13:18:41.724Z,94521.00
2023-03-21T13:22:41.707Z,94517.00
2023-03-21T13:26:41.799Z,94512.00
2023-03-21T13:30:42.620Z,94506.00
2023-03-21T13:34:42.023Z,94504.00
2023-03-21T13:38:42.104Z,94498.00
2023-03-21T13:42:42.174Z,94492.00
2023-03-21T13:46:52.941Z,94482.00
2023-03-21T13:50:44.305Z,94478.00
2023-03-21T13:54:42.230Z,94472.00
2023-03-21T13:58:42.182Z,94470.00
2023-03-21T14:02:42.380Z,94465.00
2023-03-21T14:06:42.118Z,94463.00
2023-03-21T14:10:42.011Z,94463.00
2023-03-21T14:14:42.057Z,94461.00
2023-03-21T14:18:53.385Z,94459.00
2023-03-21T14:22:43.064Z,94455.00
2023-03-21T14:26:43.807Z,94455.00
2023-03-21T14:30:42.440Z,94451.00
2023-03-21T14:34:43.467Z,94443.00
2023-03-21T14:38:42.055Z,94435.00
2023-03-21T14:42:42.487Z,94433.00
2023-03-21T14:46:42.167Z,94431.00
2023-03-21T14:50:42.220Z,94429.00
2023-03-21T14:54:42.454Z,94431.00
2023-03-21T14:58:42.127Z,94425.00
2023-03-21T15:02:42.233Z,94425.00
2023-03-21T15:06:42.209Z,94422.00
2023-03-21T15:10:42.183Z,94420.00
2023-03-21T15:14:42.162Z,94416.00
2023-03-21T15:18:42.206Z,94414.00
2023-03-21T15:22:42.347Z,94412.00
2023-03-21T15:26:42.300Z,94416.00
2023-03-21T15:30:42.308Z,94414.00
2023-03-21T15:34:42.484Z,94408.00
2023-03-21T15:38:42.483Z,94406.00
2023-03-21T15:42:42.486Z,94406.00
2023-03-21T15:46:42.918Z,94398.00
2023-03-21T15:50:42.624Z,94394.00
2023-03-21T15:54:42.726Z,94392.00
2023-03-21T15:58:42.741Z,94400.00
2023-03-21T16:02:42.830Z,94404.00
2023-03-21T16:06:42.886Z,94408.00
2023-03-21T16:10:43.025Z,94408.00
2023-03-21T16:14:43.070Z,94414.00
2023-03-21T16:18:43.059Z,94414.00
2023-03-21T16:22:43.140Z,94416.00
2023-03-21T16:26:43.268Z,94412.00
2023-03-21T16:30:43.334Z,94416.00
2023-03-21T16:34:43.410Z,94420.00
2023-03-21T16:38:43.489Z,94420.00
2023-03-21T16:42:43.650Z,94422.00
2023-03-21T16:46:43.682Z,94425.00
2023-03-21T16:50:43.762Z,94429.00
2023-03-21T16:54:43.892Z,94431.00
2023-03-21T16:58:44.372Z,94431.00
2023-03-21T17:02:44.132Z,94435.00
2023-03-21T17:06:44.270Z,94437.00
2023-03-21T17:10:44.394Z,94437.00
2023-03-21T17:14:44.569Z,94439.00
2023-03-21T17:18:44.760Z,94439.00
2023-03-21T17:22:44.866Z,94443.00
2023-03-21T17:26:45.011Z,94445.00
2023-03-21T17:30:45.285Z,94451.00
2023-03-21T17:34:45.360Z,94453.00
2023-03-21T17:38:45.626Z,94453.00
2023-03-21T17:42:45.754Z,94451.00
2023-03-21T17:46:46.030Z,94453.00
2023-03-21T17:50:46.228Z,94459.00
2023-03-21T17:54:46.309Z,94457.00
2023-03-21T17:58:46.515Z,94461.00
2023-03-21T18:02:46.612Z,94465.00
2023-03-21T18:06:47.138Z,94465.00
2023-03-21T18:10:47.018Z,94470.00
2023-03-21T18:14:47.748Z,94474.00
2023-03-21T18:18:47.504Z,94480.00
2023-03-21T18:22:47.892Z,94482.00
2023-03-21T18:26:47.829Z,94482.00
2023-03-21T18:31:06.997Z,94488.00
2023-03-21T18:34:48.926Z,94498.00
2023-03-21T18:38:47.997Z,94498.00
2023-03-21T18:43:32.830Z,94506.00
2023-03-21T18:46:49.179Z,94508.00
2023-03-21T18:50:48.079Z,94502.00
2023-03-21T18:54:48.285Z,94504.00
2023-03-21T19:03:19.283Z,94512.00
2023-03-21T19:07:08.605Z,94519.00
2023-03-21T19:11:07.483Z,94521.00
2023-03-21T19:15:07.686Z,94527.00
2023-03-21T19:19:08.068Z,94527.00
2023-03-21T19:23:09.328Z,94531.00
2023-03-21T19:27:07.932Z,94531.00
2023-03-21T19:31:07.882Z,94535.00
2023-03-21T19:35:08.771Z,94535.00
2023-03-21T19:39:07.832Z,94537.00
2023-03-21T19:43:31.157Z,94537.00
2023-03-21T19:47:08.712Z,94537.00
2023-03-21T19:51:26.885Z,94535.00
2023-03-21T19:55:08.711Z,94537.00
2023-03-21T19:59:07.692Z,94535.00
2023-03-21T20:03:07.664Z,94537.00
2023-03-21T20:07:07.626Z,94541.00
2023-03-21T20:11:07.572Z,94543.00
2023-03-21T20:15:17.023Z,94547.00
2023-03-21T20:19:08.504Z,94551.00
2023-03-21T20:23:08.792Z,94551.00
2023-03-21T20:27:07.549Z,94557.00
2023-03-21T20:31:07.514Z,94559.00
2023-03-21T20:35:19.237Z,94557.00
2023-03-21T20:39:08.440Z,94555.00
2023-03-21T20:43:41.871Z,94559.00
2023-03-21T20:47:08.373Z,94557.00
2023-03-21T20:52:00.291Z,94559.00
2023-03-21T20:55:08.339Z,94563.00
2023-03-21T20:59:17.409Z,94567.00
2023-03-21T21:03:08.311Z,94571.00
2023-03-21T21:07:07.215Z,94569.00
2023-03-21T21:11:56.932Z,94571.00
2023-03-21T21:15:08.180Z,94574.00
2023-03-21T21:19:07.139Z,94578.00
2023-03-21T21:23:07.311Z,94580.00
2023-03-21T21:27:07.144Z,94582.00
2023-03-21T21:31:30.923Z,94582.00
2023-03-21T21:35:30.727Z,94580.00
2023-03-21T21:39:30.560Z,94584.00
2023-03-21T21:43:30.860Z,94588.00
2023-03-21T21:47:30.614Z,94584.00
2023-03-21T21:51:30.520Z,94582.00
2023-03-21T21:55:30.412Z,94584.00
2023-03-21T21:59:30.420Z,94580.00
2023-03-21T22:03:30.421Z,94580.00
2023-03-21T22:07:30.326Z,94582.00
2023-03-21T22:11:30.335Z,94582.00
2023-03-21T22:15:30.221Z,94590.00
2023-03-21T22:19:30.376Z,94586.00
2023-03-21T22:23:30.242Z,94582.00
2023-03-21T22:27:30.322Z,94580.00
2023-03-21T22:31:30.328Z,94580.00
2023-03-21T22:35:30.372Z,94586.00
2023-03-21T22:39:30.303Z,94582.00
2023-03-21T22:43:30.326Z,94586.00
2023-03-21T22:47:30.227Z,94592.00
2023-03-21T22:51:30.238Z,94588.00
2023-03-21T22:55:30.218Z,94584.00
2023-03-21T22:59:30.191Z,94588.00
2023-03-21T23:03:30.452Z,94584.00
2023-03-21T23:07:30.151Z,94588.00
2023-03-21T23:11:29.954Z,94594.00
2023-03-21T23:15:29.988Z,94590.00
2023-03-21T23:19:29.972Z,94590.00
2023-03-21T23:23:29.924Z,94588.00
2023-03-21T23:27:29.818Z,94592.00
2023-03-21T23:31:29.856Z,94588.00
2023-03-21T23:35:29.765Z,94586.00
2023-03-21T23:39:29.728Z,94582.00
2023-03-21T23:43:29.797Z,94580.00
2023-03-21T23:47:29.838Z,94584.00
2023-03-21T23:51:29.805Z,94586.00
2023-03-21T23:55:29.745Z,94590.00
2023-03-21T23:59:29.784Z,94592.00
